Time;durP1;ratioP1;P1;durP2;ratioP2;P2;SDS_P1;SDS_P2;PMS_P1;PMS_P2;Temp;Humidity;BMP_temperature;BMP_pressure;BME280_temperature;BME280_humidity;BME280_pressure;Samples;Min_cycle;Max_cycle;Signal;HPM_P1;HPM_P2
2024/03/12 00:01:26;;;;;;;143.20;30.42;;;2.00;100.00;;;;;;4952865;29;20567;-74
2024/03/12 00:03:54;;;;;;;95.05;33.63;;;2.00;100.00;;;;;;4954286;28;20106;-75
2024/03/12 00:06:22;;;;;;;80.47;27.90;;;2.10;100.00;;;;;;4957524;28;20071;-74
2024/03/12 00:08:49;;;;;;;70.53;25.10;;;2.10;100.00;;;;;;4952329;28;20056;-75
2024/03/12 00:11:16;;;;;;;63.65;24.92;;;2.10;100.00;;;;;;4957671;28;20044;-75
2024/03/12 00:13:43;;;;;;;92.82;24.75;;;2.20;100.00;;;;;;4954370;28;20047;-75
2024/03/12 00:16:10;;;;;;;99.38;26.45;;;2.20;100.00;;;;;;4954485;28;20059;-75
2024/03/12 00:18:40;;;;;;;109.28;26.80;;;2.30;100.00;;;;;;4955412;28;20050;-75
2024/03/12 00:21:07;;;;;;;138.75;26.58;;;2.30;100.00;;;;;;4960620;28;20098;-75
2024/03/12 00:23:34;;;;;;;150.82;27.23;;;2.40;100.00;;;;;;4958003;28;20444;-75
2024/03/12 00:26:03;;;;;;;146.55;27.50;;;2.40;100.00;;;;;;4960519;28;20058;-76
2024/03/12 00:28:31;;;;;;;100.68;25.52;;;2.40;100.00;;;;;;4969626;28;20121;-75
2024/03/12 00:30:59;;;;;;;102.45;28.33;;;2.40;100.00;;;;;;4954432;28;20047;-75
2024/03/12 00:33:26;;;;;;;118.75;27.67;;;2.50;100.00;;;;;;4954061;28;20143;-75
2024/03/12 00:35:53;;;;;;;153.63;28.95;;;2.50;100.00;;;;;;4956348;28;20047;-75
2024/03/12 00:38:20;;;;;;;156.57;27.85;;;2.60;100.00;;;;;;4944974;28;20596;-75
2024/03/12 00:40:48;;;;;;;173.40;29.25;;;2.60;100.00;;;;;;4962138;28;20500;-75
2024/03/12 00:43:15;;;;;;;204.30;29.48;;;2.60;100.00;;;;;;4949873;28;20412;-75
2024/03/12 00:45:41;;;;;;;177.27;30.00;;;2.70;100.00;;;;;;4952391;28;20095;-74
2024/03/12 00:48:10;;;;;;;158.18;30.75;;;2.70;100.00;;;;;;4955728;28;20047;-75
2024/03/12 00:50:38;;;;;;;355.15;34.33;;;2.80;100.00;;;;;;4967527;28;20047;-74
2024/03/12 00:53:05;;;;;;;267.92;33.33;;;2.80;100.00;;;;;;4956338;28;20047;-75
2024/03/12 00:55:33;;;;;;;340.00;37.50;;;2.80;100.00;;;;;;4950043;28;20079;-75
2024/03/12 00:58:00;;;;;;;230.43;31.73;;;2.80;100.00;;;;;;4950333;29;20496;-74
2024/03/12 01:00:36;;;;;;;193.57;33.45;;;2.80;100.00;;;;;;4952270;28;20055;-74
2024/03/12 01:03:08;;;;;;;208.65;34.80;;;2.90;100.00;;;;;;4953361;28;20055;-75
2024/03/12 01:05:38;;;;;;;194.32;34.25;;;2.90;100.00;;;;;;4951814;28;20488;-75
2024/03/12 01:08:07;;;;;;;190.00;33.35;;;3.00;100.00;;;;;;4953342;28;20057;-75
2024/03/12 01:10:35;;;;;;;214.88;32.88;;;3.00;100.00;;;;;;4953608;29;20122;-75
2024/03/12 01:13:05;;;;;;;237.00;34.35;;;3.10;100.00;;;;;;4953746;28;20047;-75
2024/03/12 01:15:34;;;;;;;261.10;37.78;;;3.10;100.00;;;;;;4953994;28;20055;-75
2024/03/12 01:18:03;;;;;;;389.88;37.70;;;3.10;100.00;;;;;;4953628;28;20059;-75
2024/03/12 01:20:33;;;;;;;469.13;38.35;;;3.10;100.00;;;;;;4953428;28;20047;-75
2024/03/12 01:23:01;;;;;;;135.82;30.75;;;3.10;100.00;;;;;;4967554;28;20078;-75
2024/03/12 01:25:34;;;;;;;284.05;33.70;;;3.10;100.00;;;;;;4952191;28;20050;-75
2024/03/12 01:28:02;;;;;;;341.50;37.55;;;3.10;100.00;;;;;;4953253;28;20163;-75
2024/03/12 01:30:30;;;;;;;242.95;34.10;;;3.20;100.00;;;;;;4949819;29;20409;-75
2024/03/12 01:33:02;;;;;;;252.82;34.67;;;3.20;100.00;;;;;;4952407;28;20051;-75
2024/03/12 01:35:30;;;;;;;217.98;32.70;;;3.20;100.00;;;;;;4948609;29;20062;-75
2024/03/12 01:37:57;;;;;;;259.77;33.13;;;3.20;100.00;;;;;;4952688;28;20066;-75
2024/03/12 01:40:29;;;;;;;512.55;41.63;;;3.20;100.00;;;;;;4944865;28;20043;-74
2024/03/12 01:43:03;;;;;;;279.80;34.05;;;3.20;100.00;;;;;;4952468;28;20114;-75
2024/03/12 01:45:33;;;;;;;363.30;37.00;;;3.20;100.00;;;;;;4952690;28;20704;-75
2024/03/12 01:48:06;;;;;;;228.70;33.13;;;3.20;100.00;;;;;;4953032;28;20063;-74
2024/03/12 01:50:35;;;;;;;190.48;31.58;;;3.20;100.00;;;;;;4952634;28;20058;-75
2024/03/12 01:53:05;;;;;;;380.48;36.38;;;3.20;100.00;;;;;;4952485;28;20118;-74
2024/03/12 01:55:34;;;;;;;472.25;39.35;;;3.20;100.00;;;;;;4948726;28;20056;-75
2024/03/12 01:58:02;;;;;;;316.58;37.50;;;3.20;100.00;;;;;;4950267;29;20102;-75
2024/03/12 02:00:32;;;;;;;385.35;35.55;;;3.20;100.00;;;;;;4944472;29;20473;-75
2024/03/12 02:03:00;;;;;;;398.30;36.65;;;3.10;100.00;;;;;;4957244;28;20059;-75
2024/03/12 02:05:26;;;;;;;293.88;32.78;;;3.10;100.00;;;;;;4969724;28;20062;-75
2024/03/12 02:07:53;;;;;;;511.38;38.05;;;3.10;100.00;;;;;;4952143;28;20059;-75
2024/03/12 02:10:21;;;;;;;223.73;30.25;;;3.10;100.00;;;;;;4951131;29;20047;-75
2024/03/12 02:12:48;;;;;;;195.55;30.40;;;3.00;100.00;;;;;;4952494;28;20059;-74
2024/03/12 02:15:20;;;;;;;201.90;30.73;;;3.10;100.00;;;;;;4952511;29;20058;-74
2024/03/12 02:17:48;;;;;;;377.65;31.27;;;3.00;100.00;;;;;;4950439;29;20051;-75
2024/03/12 02:20:15;;;;;;;259.35;28.95;;;2.90;100.00;;;;;;4951333;28;20047;-75
2024/03/12 02:22:43;;;;;;;192.50;31.42;;;2.90;100.00;;;;;;4953741;28;20057;-75
2024/03/12 02:25:10;;;;;;;415.67;36.78;;;2.90;100.00;;;;;;4950502;29;20051;-75
2024/03/12 02:27:39;;;;;;;263.90;33.40;;;2.80;100.00;;;;;;4952396;28;20126;-75
2024/03/12 02:30:08;;;;;;;510.20;33.85;;;2.80;100.00;;;;;;4950040;29;20046;-74
2024/03/12 02:32:36;;;;;;;277.45;33.70;;;2.80;100.00;;;;;;4966101;28;20733;-74
2024/03/12 02:35:04;;;;;;;496.58;36.28;;;2.80;100.00;;;;;;4947913;28;20381;-75
2024/03/12 02:37:31;;;;;;;426.30;33.22;;;2.80;100.00;;;;;;4966063;28;20789;-74
2024/03/12 02:39:58;;;;;;;259.40;32.90;;;2.70;100.00;;;;;;4952265;28;20051;-74
2024/03/12 02:42:25;;;;;;;440.55;35.80;;;2.80;100.00;;;;;;4951371;28;20054;-75
2024/03/12 02:44:52;;;;;;;336.17;32.65;;;2.80;100.00;;;;;;4966054;28;20055;-75
2024/03/12 02:47:20;;;;;;;355.65;33.38;;;2.80;100.00;;;;;;4950987;28;20142;-74
2024/03/12 02:49:47;;;;;;;326.85;31.73;;;2.80;100.00;;;;;;4943968;29;20485;-75
2024/03/12 02:52:14;;;;;;;224.27;31.73;;;2.80;100.00;;;;;;4949119;28;20703;-74
2024/03/12 02:54:41;;;;;;;379.92;37.55;;;2.80;100.00;;;;;;4948477;28;20075;-75
2024/03/12 02:57:11;;;;;;;305.67;32.22;;;2.90;100.00;;;;;;4946544;28;20044;-74
2024/03/12 02:59:38;;;;;;;432.77;36.47;;;2.80;100.00;;;;;;4944641;29;20043;-74
2024/03/12 03:02:05;;;;;;;203.98;30.02;;;2.80;100.00;;;;;;4947835;29;20051;-74
2024/03/12 03:04:36;;;;;;;241.80;34.38;;;2.90;100.00;;;;;;4944379;28;20065;-75
2024/03/12 03:07:04;;;;;;;255.77;31.08;;;2.90;100.00;;;;;;4948767;29;20059;-74
2024/03/12 03:09:31;;;;;;;151.63;28.88;;;2.90;100.00;;;;;;4949587;28;20153;-74
2024/03/12 03:11:59;;;;;;;246.38;31.23;;;2.90;100.00;;;;;;4948927;28;20656;-75
2024/03/12 03:14:26;;;;;;;254.13;31.70;;;2.90;100.00;;;;;;4949649;28;20047;-74
2024/03/12 03:16:54;;;;;;;235.07;30.58;;;2.90;100.00;;;;;;4949870;28;20067;-74
2024/03/12 03:19:22;;;;;;;190.30;31.35;;;2.80;100.00;;;;;;4946225;29;20077;-74
2024/03/12 03:21:49;;;;;;;167.82;29.00;;;2.80;100.00;;;;;;4949451;28;20130;-73
2024/03/12 03:24:16;;;;;;;269.50;31.02;;;2.80;100.00;;;;;;4948822;28;20047;-74
2024/03/12 03:26:43;;;;;;;242.00;28.60;;;2.70;100.00;;;;;;4944991;29;20063;-74
2024/03/12 03:29:11;;;;;;;199.27;28.50;;;2.70;100.00;;;;;;4943997;29;20051;-75
2024/03/12 03:31:41;;;;;;;277.55;31.25;;;2.70;100.00;;;;;;4946761;29;20401;-74
2024/03/12 03:34:10;;;;;;;316.92;32.35;;;2.70;100.00;;;;;;4947910;29;20055;-74
2024/03/12 03:36:39;;;;;;;182.98;28.13;;;2.60;100.00;;;;;;4949770;28;20495;-73
2024/03/12 03:39:08;;;;;;;153.45;28.65;;;2.60;100.00;;;;;;4948081;28;20094;-74
2024/03/12 03:41:35;;;;;;;218.98;29.33;;;2.60;100.00;;;;;;4949332;28;20130;-74
2024/03/12 03:44:02;;;;;;;347.48;34.58;;;2.60;100.00;;;;;;4947832;28;20051;-73
2024/03/12 03:46:29;;;;;;;415.67;33.88;;;2.60;100.00;;;;;;4947661;29;20051;-73
2024/03/12 03:48:57;;;;;;;230.63;27.52;;;2.40;100.00;;;;;;4945508;28;20052;-74
2024/03/12 03:51:25;;;;;;;265.52;31.05;;;2.50;100.00;;;;;;4960441;28;20075;-73
2024/03/12 03:53:52;;;;;;;234.40;28.88;;;2.50;100.00;;;;;;4950838;28;20078;-73
2024/03/12 03:56:21;;;;;;;196.93;27.83;;;2.50;100.00;;;;;;4951400;28;20050;-74
2024/03/12 03:58:49;;;;;;;236.18;27.48;;;2.50;100.00;;;;;;4952659;28;20058;-74
2024/03/12 04:03:46;;;;;;;202.60;26.48;;;2.40;100.00;;;;;;4943566;28;20492;-73
2024/03/12 04:06:13;;;;;;;200.00;27.27;;;2.40;100.00;;;;;;4947218;28;20082;-74
2024/03/12 04:08:40;;;;;;;257.25;28.50;;;2.50;100.00;;;;;;4953147;28;20089;-73
2024/03/12 04:11:07;;;;;;;205.35;28.42;;;2.40;100.00;;;;;;4945884;28;20070;-73
2024/03/12 04:13:34;;;;;;;168.65;27.77;;;2.40;100.00;;;;;;4947577;28;20085;-73
2024/03/12 04:16:00;;;;;;;175.32;26.38;;;2.40;100.00;;;;;;4949239;28;20048;-73
2024/03/12 04:18:27;;;;;;;153.43;31.58;;;2.40;100.00;;;;;;4949796;28;20047;-73
2024/03/12 04:20:55;;;;;;;320.85;29.52;;;2.40;100.00;;;;;;4950442;28;20181;-73
2024/03/12 04:23:23;;;;;;;184.70;27.02;;;2.40;100.00;;;;;;4949917;28;20046;-73
2024/03/12 04:25:50;;;;;;;197.32;27.02;;;2.40;100.00;;;;;;4947523;29;20452;-73
2024/03/12 04:28:19;;;;;;;263.58;28.13;;;2.40;100.00;;;;;;4947811;28;20048;-73
2024/03/12 04:30:48;;;;;;;307.50;28.30;;;2.40;100.00;;;;;;4947243;28;20051;-73
2024/03/12 04:33:17;;;;;;;213.45;26.88;;;2.40;100.00;;;;;;4963280;28;20055;-76
2024/03/12 04:35:45;;;;;;;315.90;31.85;;;2.40;100.00;;;;;;4946756;28;20043;-75
2024/03/12 04:38:14;;;;;;;337.23;31.65;;;2.40;100.00;;;;;;4946481;28;20055;-75
2024/03/12 04:40:43;;;;;;;266.08;30.65;;;2.40;100.00;;;;;;4947261;29;20192;-75
2024/03/12 04:43:12;;;;;;;193.48;27.50;;;2.50;100.00;;;;;;4945359;28;20432;-75
2024/03/12 04:45:40;;;;;;;146.43;27.23;;;2.50;100.00;;;;;;4961187;28;20055;-74
2024/03/12 04:48:08;;;;;;;148.82;26.63;;;2.40;100.00;;;;;;4947517;28;20134;-74
2024/03/12 04:50:35;;;;;;;209.43;27.20;;;2.50;100.00;;;;;;4946976;28;20051;-74
2024/03/12 04:53:02;;;;;;;291.15;30.90;;;2.50;100.00;;;;;;4946297;28;20408;-74
2024/03/12 04:55:29;;;;;;;245.32;31.08;;;2.50;100.00;;;;;;4952898;28;20079;-74
2024/03/12 04:57:56;;;;;;;356.90;30.95;;;2.50;100.00;;;;;;4947224;29;20669;-74
2024/03/12 05:00:23;;;;;;;255.68;29.73;;;2.60;100.00;;;;;;4946199;28;20049;-74
2024/03/12 05:02:50;;;;;;;270.65;28.00;;;2.60;100.00;;;;;;4946005;28;20059;-75
2024/03/12 05:05:19;;;;;;;162.77;27.00;;;2.60;100.00;;;;;;4962371;28;20146;-75
2024/03/12 05:07:47;;;;;;;174.13;26.70;;;2.60;100.00;;;;;;4948372;29;20121;-74
2024/03/12 05:10:14;;;;;;;198.32;27.58;;;2.60;100.00;;;;;;4976368;28;20423;-75
2024/03/12 05:12:41;;;;;;;260.00;28.55;;;2.60;100.00;;;;;;4946503;29;20055;-74
2024/03/12 05:15:09;;;;;;;172.57;28.25;;;2.60;100.00;;;;;;4961075;28;20054;-74
2024/03/12 05:17:37;;;;;;;129.57;25.95;;;2.70;100.00;;;;;;4946688;28;20054;-74
2024/03/12 05:20:12;;;;;;;189.52;28.70;;;2.60;100.00;;;;;;4945445;29;20053;-75
2024/03/12 05:22:39;;;;;;;352.95;37.97;;;2.60;100.00;;;;;;4959016;28;20425;-71
2024/03/12 05:25:10;;;;;;;156.77;30.33;;;2.60;100.00;;;;;;4959388;28;20054;-70
2024/03/12 05:27:38;;;;;;;176.07;28.02;;;2.60;100.00;;;;;;4945530;28;20051;-70
2024/03/12 05:30:10;;;;;;;171.68;27.65;;;2.60;100.00;;;;;;4945387;28;20063;-70
2024/03/12 05:32:41;;;;;;;271.95;29.05;;;2.60;100.00;;;;;;4944337;28;20467;-70
2024/03/12 05:35:17;;;;;;;162.20;27.05;;;2.60;100.00;;;;;;4960218;28;20118;-70
2024/03/12 05:38:03;;;;;;;;;;;;;;;;;;;;;
2024/03/12 05:48:52;;;;;;;157.02;28.50;;;2.60;100.00;;;;;;4944918;28;20587;-71
2024/03/12 05:51:19;;;;;;;168.75;27.10;;;2.70;100.00;;;;;;4943059;29;20058;-75
2024/03/12 05:53:47;;;;;;;184.30;28.88;;;2.70;100.00;;;;;;4943156;28;20423;-71
2024/03/12 05:56:14;;;;;;;126.75;26.08;;;2.70;100.00;;;;;;4959434;28;20420;-71
2024/03/12 05:58:47;;;;;;;263.40;28.15;;;2.70;100.00;;;;;;4944972;29;20051;-70
2024/03/12 06:01:15;;;;;;;166.50;27.58;;;2.60;100.00;;;;;;4943962;28;20051;-69
2024/03/12 06:03:42;;;;;;;153.25;26.92;;;2.60;100.00;;;;;;4956625;28;20055;-69
2024/03/12 06:06:09;;;;;;;148.02;25.95;;;2.70;100.00;;;;;;4958581;28;20082;-70
2024/03/12 06:08:36;;;;;;;181.73;26.23;;;2.70;100.00;;;;;;4945431;28;20355;-69
2024/03/12 06:11:03;;;;;;;156.00;26.52;;;2.70;100.00;;;;;;4943458;28;20066;-68
2024/03/12 06:13:30;;;;;;;149.18;26.40;;;2.70;100.00;;;;;;4941435;28;20565;-69
2024/03/12 06:15:57;;;;;;;181.80;28.83;;;2.70;100.00;;;;;;4959468;28;20507;-70
2024/03/12 06:18:28;;;;;;;140.60;26.27;;;2.70;100.00;;;;;;4945292;29;20058;-72
2024/03/12 06:20:55;;;;;;;232.95;29.23;;;2.70;100.00;;;;;;4959036;28;20043;-71
2024/03/12 06:23:22;;;;;;;103.13;24.90;;;2.60;100.00;;;;;;4942205;28;20058;-70
2024/03/12 06:25:50;;;;;;;231.20;26.17;;;2.70;100.00;;;;;;4943577;29;20063;-70
2024/03/12 06:28:21;;;;;;;154.00;23.98;;;2.60;100.00;;;;;;4959066;28;20125;-70
2024/03/12 06:30:48;;;;;;;205.55;25.33;;;2.50;100.00;;;;;;4942543;28;20055;-71
2024/03/12 06:33:18;;;;;;;161.73;25.33;;;2.40;100.00;;;;;;4943769;29;20317;-69
2024/03/12 06:35:47;;;;;;;161.25;27.17;;;2.50;100.00;;;;;;4944377;29;20071;-71
2024/03/12 06:38:15;;;;;;;77.45;23.02;;;2.50;100.00;;;;;;4957176;28;20130;-71
2024/03/12 06:40:43;;;;;;;260.52;25.25;;;2.40;100.00;;;;;;4942258;29;20508;-72
2024/03/12 06:43:13;;;;;;;168.70;23.40;;;2.40;100.00;;;;;;4941985;28;20408;-71
2024/03/12 06:45:40;;;;;;;167.13;24.38;;;2.40;100.00;;;;;;4957532;28;20449;-71
2024/03/12 06:48:07;;;;;;;105.97;26.10;;;2.40;100.00;;;;;;4944385;28;20058;-71
2024/03/12 06:50:34;;;;;;;101.97;22.88;;;2.50;100.00;;;;;;4944795;28;20055;-71
2024/03/12 06:53:01;;;;;;;142.88;25.77;;;2.50;100.00;;;;;;4958148;28;20058;-71
2024/03/12 06:55:29;;;;;;;155.52;24.42;;;2.60;100.00;;;;;;4943422;28;20047;-71
2024/03/12 06:58:04;;;;;;;140.52;24.70;;;2.60;100.00;;;;;;4944760;28;20159;-72
2024/03/12 07:00:39;;;;;;;143.38;23.85;;;2.70;100.00;;;;;;4944534;28;20125;-72
2024/03/12 07:03:07;;;;;;;252.15;27.05;;;2.70;100.00;;;;;;4943505;29;20138;-72
2024/03/12 07:05:36;;;;;;;125.75;28.13;;;2.70;100.00;;;;;;4943052;28;20059;-71
2024/03/12 07:08:09;;;;;;;117.28;24.45;;;2.80;100.00;;;;;;4958209;28;20051;-72
2024/03/12 07:10:42;;;;;;;195.48;25.65;;;2.90;100.00;;;;;;4943157;29;20058;-71
2024/03/12 07:13:09;;;;;;;180.95;27.75;;;2.90;100.00;;;;;;4942735;28;20597;-71
2024/03/12 07:15:39;;;;;;;71.43;24.48;;;2.80;100.00;;;;;;4944984;29;20138;-71
2024/03/12 07:18:07;;;;;;;67.32;24.33;;;3.00;100.00;;;;;;4944093;28;20046;-72
2024/03/12 07:20:35;;;;;;;75.70;24.85;;;3.00;100.00;;;;;;4942704;29;20055;-71
2024/03/12 07:23:03;;;;;;;62.38;22.98;;;3.10;100.00;;;;;;4943833;28;20047;-71
2024/03/12 07:25:32;;;;;;;57.03;22.50;;;3.20;100.00;;;;;;4947865;28;20087;-71
2024/03/12 07:28:05;;;;;;;61.00;23.95;;;3.20;100.00;;;;;;4962295;28;20114;-71
2024/03/12 07:30:33;;;;;;;52.00;22.98;;;3.20;100.00;;;;;;4945655;28;20062;-71
2024/03/12 07:33:03;;;;;;;48.72;22.85;;;3.30;100.00;;;;;;4947600;28;20436;-71
2024/03/12 07:35:33;;;;;;;54.17;22.77;;;3.40;100.00;;;;;;4946738;28;20059;-71
2024/03/12 07:38:02;;;;;;;55.28;24.63;;;3.50;100.00;;;;;;4947579;29;20051;-71
2024/03/12 07:40:30;;;;;;;62.60;25.80;;;3.60;100.00;;;;;;4944522;28;20091;-71
2024/03/12 07:42:57;;;;;;;59.67;26.50;;;3.70;100.00;;;;;;4947946;28;20586;-71
2024/03/12 07:45:24;;;;;;;56.42;24.13;;;3.80;100.00;;;;;;4962400;28;20401;-71
2024/03/12 07:47:52;;;;;;;59.03;24.77;;;3.80;100.00;;;;;;4947851;28;20061;-71
2024/03/12 07:50:20;;;;;;;64.90;25.23;;;3.90;100.00;;;;;;4947811;28;20392;-71
2024/03/12 07:52:47;;;;;;;62.95;25.17;;;4.00;100.00;;;;;;4953461;28;20054;-71
2024/03/12 07:55:14;;;;;;;51.95;24.58;;;4.10;100.00;;;;;;4948926;28;20051;-71
2024/03/12 07:57:41;;;;;;;59.38;25.00;;;4.30;100.00;;;;;;4946160;28;20138;-71
2024/03/12 08:00:16;;;;;;;58.65;25.02;;;4.40;100.00;;;;;;4947363;28;20047;-71
2024/03/12 08:02:43;;;;;;;59.38;25.83;;;4.40;100.00;;;;;;4957245;28;20059;-71
2024/03/12 08:05:10;;;;;;;57.58;25.30;;;4.40;100.00;;;;;;4961410;28;20059;-71
2024/03/12 08:07:38;;;;;;;56.85;25.45;;;4.60;100.00;;;;;;4946873;28;20308;-71
2024/03/12 08:10:05;;;;;;;59.33;25.52;;;4.70;100.00;;;;;;4947296;28;20145;-71
2024/03/12 08:12:32;;;;;;;55.25;24.85;;;4.80;100.00;;;;;;4947225;29;20055;-72
2024/03/12 08:15:01;;;;;;;56.83;24.30;;;4.70;100.00;;;;;;4961440;28;20556;-71
2024/03/12 08:17:28;;;;;;;51.40;23.83;;;4.70;100.00;;;;;;4941824;29;20150;-72
2024/03/12 08:19:57;;;;;;;54.17;24.65;;;4.90;100.00;;;;;;4949046;28;20336;-71
2024/03/12 08:22:24;;;;;;;56.38;24.15;;;4.80;100.00;;;;;;4950452;28;20043;-72
2024/03/12 08:24:51;;;;;;;54.72;24.83;;;4.90;100.00;;;;;;4946610;29;20422;-71
2024/03/12 08:27:19;;;;;;;54.20;24.05;;;4.90;100.00;;;;;;4944727;28;20055;-71
2024/03/12 08:29:45;;;;;;;51.20;23.40;;;5.00;100.00;;;;;;4947565;28;20113;-71
2024/03/12 08:32:13;;;;;;;55.50;25.05;;;5.00;100.00;;;;;;4945965;28;20404;-72
2024/03/12 08:34:41;;;;;;;49.55;23.35;;;5.10;100.00;;;;;;4944622;28;20532;-71
2024/03/12 08:37:11;;;;;;;53.15;24.02;;;5.20;100.00;;;;;;4969672;28;20467;-72
2024/03/12 08:39:38;;;;;;;59.63;26.33;;;5.40;100.00;;;;;;4947016;28;20551;-72
2024/03/12 08:42:09;;;;;;;54.28;23.48;;;5.40;100.00;;;;;;4947429;28;20415;-72
2024/03/12 08:44:37;;;;;;;52.97;22.73;;;5.40;100.00;;;;;;4948108;28;20133;-72
2024/03/12 08:47:04;;;;;;;55.72;24.77;;;5.40;100.00;;;;;;4962052;28;20073;-72
2024/03/12 08:49:33;;;;;;;56.38;23.30;;;5.50;100.00;;;;;;4946054;28;20105;-72
2024/03/12 08:52:00;;;;;;;51.03;22.70;;;5.70;100.00;;;;;;4947579;28;20048;-72
2024/03/12 08:54:27;;;;;;;53.92;24.00;;;5.70;100.00;;;;;;4961975;28;20264;-72
2024/03/12 08:56:54;;;;;;;51.08;24.08;;;5.80;100.00;;;;;;4947859;28;20327;-72
2024/03/12 08:59:21;;;;;;;66.40;23.98;;;5.90;100.00;;;;;;4947445;28;20059;-72
2024/03/12 09:01:54;;;;;;;50.00;23.25;;;6.00;100.00;;;;;;4962787;28;20506;-72
2024/03/12 09:04:21;;;;;;;55.05;23.02;;;6.00;100.00;;;;;;4962141;28;20152;-72
2024/03/12 09:06:48;;;;;;;49.42;22.40;;;5.90;100.00;;;;;;4947572;28;20092;-72
2024/03/12 09:09:15;;;;;;;51.60;23.50;;;6.10;100.00;;;;;;4948240;28;20058;-72
2024/03/12 09:11:43;;;;;;;51.70;23.55;;;6.20;100.00;;;;;;4945925;28;20214;-72
2024/03/12 09:14:10;;;;;;;45.42;22.15;;;6.30;100.00;;;;;;4947661;29;20073;-72
2024/03/12 09:16:37;;;;;;;49.58;22.50;;;6.40;100.00;;;;;;4947387;28;20055;-72
2024/03/12 09:19:04;;;;;;;48.85;22.42;;;6.40;100.00;;;;;;4945391;29;20142;-72
2024/03/12 09:21:33;;;;;;;44.53;21.00;;;6.50;100.00;;;;;;4945848;28;20485;-72
2024/03/12 09:24:01;;;;;;;44.80;21.70;;;6.60;100.00;;;;;;4946925;28;20047;-72
2024/03/12 09:26:28;;;;;;;49.45;21.63;;;6.70;100.00;;;;;;4947037;29;20560;-72
2024/03/12 09:28:57;;;;;;;54.72;22.63;;;6.80;100.00;;;;;;4947626;28;20102;-72
2024/03/12 09:31:24;;;;;;;42.40;21.17;;;6.80;100.00;;;;;;4945854;28;20154;-72
2024/03/12 09:33:51;;;;;;;44.38;21.33;;;6.80;100.00;;;;;;4945905;28;20464;-72
2024/03/12 09:36:20;;;;;;;44.67;22.67;;;7.00;100.00;;;;;;4946625;29;20111;-72
2024/03/12 09:38:50;;;;;;;45.55;21.88;;;7.00;100.00;;;;;;4947074;28;20106;-72
2024/03/12 09:41:20;;;;;;;43.85;22.02;;;7.10;100.00;;;;;;4946833;28;20055;-72
2024/03/12 09:43:47;;;;;;;47.17;22.30;;;7.20;100.00;;;;;;4946593;28;20062;-72
2024/03/12 09:46:16;;;;;;;50.30;22.73;;;7.30;100.00;;;;;;4943955;28;20063;-72
2024/03/12 09:48:44;;;;;;;45.67;22.50;;;7.50;100.00;;;;;;4947144;28;20126;-72
2024/03/12 09:51:12;;;;;;;44.35;22.00;;;7.50;100.00;;;;;;4961118;28;20069;-72
2024/03/12 09:53:41;;;;;;;46.42;21.05;;;7.50;100.00;;;;;;4946297;28;20522;-72
2024/03/12 09:56:10;;;;;;;40.75;20.55;;;7.50;100.00;;;;;;4946515;29;20781;-72
2024/03/12 09:58:38;;;;;;;41.55;21.98;;;7.30;100.00;;;;;;4951155;28;20130;-72
2024/03/12 10:01:06;;;;;;;45.00;20.98;;;7.50;100.00;;;;;;4964026;28;20079;-72
2024/03/12 10:03:36;;;;;;;42.53;22.23;;;7.80;100.00;;;;;;4944204;29;20063;-72
2024/03/12 10:06:05;;;;;;;43.47;22.27;;;8.00;100.00;;;;;;4945195;28;20094;-72
2024/03/12 10:08:34;;;;;;;39.10;20.67;;;8.00;100.00;;;;;;4946564;28;20085;-72
2024/03/12 10:11:07;;;;;;;43.60;22.02;;;8.00;100.00;;;;;;4945609;28;20055;-72
2024/03/12 10:13:36;;;;;;;40.20;20.80;;;8.00;100.00;;;;;;4942585;29;20061;-72
2024/03/12 10:16:03;;;;;;;37.35;19.17;;;8.10;100.00;;;;;;4960629;28;20050;-72
2024/03/12 10:18:33;;;;;;;44.65;21.60;;;8.10;100.00;;;;;;4946278;28;20166;-72
2024/03/12 10:21:01;;;;;;;38.78;19.40;;;8.20;100.00;;;;;;4944329;28;20110;-72
2024/03/12 10:23:31;;;;;;;39.42;19.30;;;8.20;100.00;;;;;;4942879;29;20051;-72
2024/03/12 10:26:10;;;;;;;36.83;19.50;;;8.30;100.00;;;;;;4946250;28;20063;-72
2024/03/12 10:28:39;;;;;;;38.58;19.13;;;8.20;100.00;;;;;;4939112;29;20243;-72
2024/03/12 10:31:11;;;;;;;38.03;18.55;;;8.30;100.00;;;;;;4945888;28;20066;-72
2024/03/12 10:33:48;;;;;;;34.88;18.73;;;8.30;100.00;;;;;;4945651;28;20110;-72
2024/03/12 10:36:29;;;;;;;34.38;18.60;;;8.40;100.00;;;;;;4944287;28;20536;-72
2024/03/12 10:38:56;;;;;;;32.28;18.33;;;8.60;100.00;;;;;;4960713;28;20043;-72
2024/03/12 10:41:25;;;;;;;35.13;18.42;;;8.80;100.00;;;;;;4945474;29;20082;-72
2024/03/12 10:44:02;;;;;;;37.65;17.98;;;8.90;100.00;;;;;;4945499;28;20087;-72
2024/03/12 10:46:34;;;;;;;31.77;17.70;;;9.10;100.00;;;;;;4936892;29;20138;-72
2024/03/12 10:49:02;;;;;;;32.40;18.23;;;9.10;100.00;;;;;;4944726;28;20074;-72
2024/03/12 10:51:29;;;;;;;30.77;17.70;;;9.10;100.00;;;;;;4939380;29;20051;-72
2024/03/12 10:53:56;;;;;;;32.03;16.58;;;9.10;100.00;;;;;;4951519;28;20055;-72
2024/03/12 10:56:23;;;;;;;31.15;16.80;;;9.30;100.00;;;;;;4945576;28;20047;-72
2024/03/12 10:58:54;;;;;;;27.15;16.27;;;9.30;100.00;;;;;;4945736;28;20078;-72
2024/03/12 11:01:23;;;;;;;29.85;16.27;;;9.40;100.00;;;;;;4944150;29;20055;-72
2024/03/12 11:03:56;;;;;;;27.00;14.38;;;9.20;100.00;;;;;;4964525;28;20066;-72
2024/03/12 11:06:29;;;;;;;28.63;15.60;;;9.20;100.00;;;;;;4946351;28;20453;-70
2024/03/12 11:08:59;;;;;;;32.28;17.08;;;9.40;100.00;;;;;;4946372;28;20532;-71
2024/03/12 11:11:28;;;;;;;33.40;16.20;;;9.70;100.00;;;;;;4944160;29;20047;-72
2024/03/12 11:13:56;;;;;;;26.00;14.32;;;9.80;100.00;;;;;;4945500;28;20110;-70
2024/03/12 11:16:30;;;;;;;26.38;15.48;;;9.80;100.00;;;;;;4945163;28;20611;-71
2024/03/12 11:19:15;;;;;;;25.35;14.95;;;9.90;100.00;;;;;;4945231;28;20141;-72
2024/03/12 11:21:43;;;;;;;33.15;18.15;;;9.90;100.00;;;;;;4945389;28;20047;-72
2024/03/12 11:24:09;;;;;;;40.22;21.40;;;9.90;100.00;;;;;;4959932;28;20066;-72
2024/03/12 11:26:40;;;;;;;31.95;15.95;;;10.10;100.00;;;;;;4945833;28;20154;-72
2024/03/12 11:29:11;;;;;;;30.48;17.30;;;10.10;100.00;;;;;;4945535;28;20055;-71
2024/03/12 11:31:39;;;;;;;25.15;15.05;;;10.00;100.00;;;;;;4944232;28;20221;-71
2024/03/12 11:34:07;;;;;;;26.60;15.68;;;9.90;100.00;;;;;;4943754;29;20476;-71
2024/03/12 11:36:40;;;;;;;26.63;15.90;;;9.90;100.00;;;;;;4944701;28;20055;-71
2024/03/12 11:39:17;;;;;;;28.30;16.10;;;9.80;100.00;;;;;;4945001;28;20053;-71
2024/03/12 11:41:59;;;;;;;27.83;15.88;;;9.90;100.00;;;;;;4944909;28;20112;-72
2024/03/12 11:44:52;;;;;;;31.08;16.25;;;10.00;100.00;;;;;;4944967;29;20059;-71
2024/03/12 11:47:31;;;;;;;33.17;16.83;;;9.90;100.00;;;;;;4945176;28;20106;-71
2024/03/12 11:49:58;;;;;;;29.95;15.02;;;10.00;100.00;;;;;;4943211;29;20110;-72
2024/03/12 11:52:31;;;;;;;27.98;14.75;;;10.10;100.00;;;;;;4953730;28;20051;-72
2024/03/12 11:55:03;;;;;;;30.23;15.15;;;10.10;100.00;;;;;;4948094;28;20130;-72
2024/03/12 11:57:30;;;;;;;30.75;15.32;;;10.10;100.00;;;;;;4937553;29;20073;-72
2024/03/12 11:59:58;;;;;;;26.90;15.00;;;10.20;100.00;;;;;;4958877;28;20054;-72
2024/03/12 12:02:26;;;;;;;28.33;14.20;;;10.20;100.00;;;;;;4948319;28;20058;-72
2024/03/12 12:04:55;;;;;;;30.55;15.35;;;10.10;100.00;;;;;;4945011;28;20058;-72
2024/03/12 12:07:24;;;;;;;25.90;14.52;;;10.20;100.00;;;;;;4943048;28;20063;-72
2024/03/12 12:09:52;;;;;;;27.95;15.23;;;10.30;100.00;;;;;;4945569;28;20059;-72
2024/03/12 12:12:20;;;;;;;28.88;16.35;;;10.40;100.00;;;;;;4948103;28;20344;-72
2024/03/12 12:14:47;;;;;;;31.77;14.30;;;10.40;100.00;;;;;;4948242;28;20143;-72
2024/03/12 12:17:24;;;;;;;27.67;14.27;;;10.50;100.00;;;;;;4948269;28;20097;-72
2024/03/12 12:20:13;;;;;;;26.50;14.30;;;10.70;100.00;;;;;;4946271;29;20821;-72
2024/03/12 12:22:44;;;;;;;39.03;15.10;;;10.80;100.00;;;;;;4943003;29;20445;-72
2024/03/12 12:25:11;;;;;;;25.00;14.40;;;10.80;100.00;;;;;;4947954;28;20545;-72
2024/03/12 12:27:39;;;;;;;26.15;14.18;;;10.90;100.00;;;;;;4947599;28;20417;-72
2024/03/12 12:30:09;;;;;;;21.50;12.98;;;11.00;100.00;;;;;;4947084;28;20047;-72
2024/03/12 12:32:38;;;;;;;22.40;13.23;;;11.00;100.00;;;;;;4945598;28;20059;-72
2024/03/12 12:35:10;;;;;;;27.65;13.25;;;11.10;100.00;;;;;;4945988;28;20476;-72
2024/03/12 12:37:38;;;;;;;24.88;14.25;;;11.00;100.00;;;;;;4947235;28;20058;-72
2024/03/12 12:40:09;;;;;;;21.60;12.40;;;11.00;100.00;;;;;;4947459;28;20360;-72
2024/03/12 12:42:38;;;;;;;24.83;12.95;;;10.90;100.00;;;;;;4947216;28;20112;-72